Time;durP1;ratioP1;P1;durP2;ratioP2;P2;SDS_P1;SDS_P2;PMS_P1;PMS_P2;Temp;Humidity;BMP_temperature;BMP_pressure;BME280_temperature;BME280_humidity;BME280_pressure;Samples;Min_cycle;Max_cycle;Signal;HPM_P1;HPM_P2
2021/10/22 00:02:09;;;;;;;30.57;5.63;;;7.00;99.90;;;;;;5089470;28;20184;-64
2021/10/22 00:04:35;;;;;;;18.97;5.23;;;7.10;99.90;;;;;;5088971;28;20172;-65
2021/10/22 00:07:03;;;;;;;16.57;4.57;;;7.10;99.90;;;;;;5089184;28;20202;-64
2021/10/22 00:09:29;;;;;;;16.17;4.43;;;7.10;99.90;;;;;;5088926;28;20222;-64
2021/10/22 00:11:54;;;;;;;18.17;4.70;;;7.00;99.90;;;;;;5089155;28;20219;-65
2021/10/22 00:14:20;;;;;;;17.97;5.00;;;6.90;99.90;;;;;;5087731;28;20533;-64
2021/10/22 00:16:45;;;;;;;24.37;5.40;;;7.00;99.90;;;;;;5089124;28;20184;-64
2021/10/22 00:19:11;;;;;;;15.57;4.63;;;7.00;99.90;;;;;;5089264;28;20160;-64
2021/10/22 00:21:37;;;;;;;18.17;4.87;;;7.00;99.90;;;;;;5089271;28;20168;-64
2021/10/22 00:24:04;;;;;;;15.07;5.40;;;6.90;99.90;;;;;;5088318;28;20228;-65
2021/10/22 00:26:31;;;;;;;16.90;5.20;;;7.00;99.90;;;;;;5088772;28;20164;-65
2021/10/22 00:28:56;;;;;;;13.77;5.10;;;7.10;99.90;;;;;;5089147;28;20165;-65
2021/10/22 00:31:22;;;;;;;11.87;4.53;;;7.00;99.90;;;;;;5089013;28;20222;-65
2021/10/22 00:33:48;;;;;;;10.43;4.50;;;7.10;99.90;;;;;;5088729;28;20195;-65
2021/10/22 00:36:13;;;;;;;12.47;4.70;;;7.30;99.90;;;;;;5088795;28;20194;-64
2021/10/22 00:38:39;;;;;;;14.33;5.83;;;7.10;99.90;;;;;;5088893;28;20172;-64
2021/10/22 00:41:05;;;;;;;19.07;5.70;;;7.10;99.90;;;;;;5088411;28;20228;-64
2021/10/22 00:43:32;;;;;;;23.73;5.50;;;7.00;99.90;;;;;;5088566;28;20199;-64
2021/10/22 00:45:59;;;;;;;12.27;4.57;;;7.00;99.90;;;;;;5088379;28;20174;-64
2021/10/22 00:48:25;;;;;;;18.80;4.93;;;6.90;99.90;;;;;;5088758;28;20239;-65
2021/10/22 00:50:59;;;;;;;19.43;4.33;;;6.90;99.90;;;;;;5088671;28;20160;-64
2021/10/22 00:53:26;;;;;;;21.40;5.83;;;6.90;99.90;;;;;;5088554;28;20159;-64
2021/10/22 00:55:52;;;;;;;23.23;4.90;;;6.80;99.90;;;;;;5086232;28;20183;-64
2021/10/22 00:58:18;;;;;;;14.67;4.70;;;6.80;99.90;;;;;;5088432;28;20164;-64
2021/10/22 01:00:44;;;;;;;15.93;4.30;;;6.90;99.90;;;;;;5088271;28;20182;-65
2021/10/22 01:03:10;;;;;;;25.83;5.00;;;6.90;99.90;;;;;;5088238;28;20196;-64
2021/10/22 01:05:37;;;;;;;13.70;4.83;;;6.90;99.90;;;;;;5087963;28;20187;-64
2021/10/22 01:08:04;;;;;;;15.60;5.03;;;6.90;99.90;;;;;;5088322;28;20152;-65
2021/10/22 01:10:30;;;;;;;20.90;4.70;;;6.70;99.90;;;;;;5087507;28;20317;-65
2021/10/22 01:12:57;;;;;;;18.53;4.80;;;6.70;99.90;;;;;;5087908;28;20161;-65
2021/10/22 01:15:23;;;;;;;23.47;5.20;;;6.70;99.90;;;;;;5087875;28;20247;-64
2021/10/22 01:17:49;;;;;;;17.10;4.97;;;6.70;99.90;;;;;;5088111;28;20255;-64
2021/10/22 01:20:22;;;;;;;18.27;5.10;;;6.80;99.90;;;;;;5087812;28;20169;-64
2021/10/22 01:22:50;;;;;;;14.33;4.73;;;6.80;99.90;;;;;;5087918;28;20172;-65
2021/10/22 01:25:21;;;;;;;15.47;4.07;;;6.70;99.90;;;;;;5087358;28;20167;-64
2021/10/22 01:27:47;;;;;;;13.20;4.57;;;6.70;99.90;;;;;;5088082;28;20144;-64
2021/10/22 01:30:15;;;;;;;11.17;4.60;;;6.70;99.90;;;;;;5087819;28;20171;-64
2021/10/22 01:32:41;;;;;;;15.17;4.20;;;6.70;99.90;;;;;;5087979;28;20169;-65
2021/10/22 01:35:09;;;;;;;10.53;4.23;;;6.60;99.90;;;;;;5087094;28;20695;-64
2021/10/22 01:37:35;;;;;;;15.90;4.23;;;6.70;99.90;;;;;;5087630;28;20219;-65
2021/10/22 01:40:02;;;;;;;12.23;4.20;;;6.80;99.90;;;;;;5086924;28;20183;-64
2021/10/22 01:42:28;;;;;;;19.83;4.57;;;6.80;99.90;;;;;;5087476;28;20179;-64
2021/10/22 01:44:54;;;;;;;9.50;3.80;;;6.80;99.90;;;;;;5087267;28;20222;-64
2021/10/22 01:47:20;;;;;;;18.27;3.80;;;6.90;99.90;;;;;;5087244;28;20168;-64
2021/10/22 01:49:45;;;;;;;12.97;3.70;;;6.80;99.90;;;;;;5087403;28;20236;-65
2021/10/22 01:52:11;;;;;;;11.40;3.63;;;6.90;99.90;;;;;;5087153;28;20171;-65
2021/10/22 01:54:37;;;;;;;15.23;4.20;;;6.80;99.90;;;;;;5086699;28;20172;-64
2021/10/22 01:57:04;;;;;;;11.13;3.63;;;6.80;99.90;;;;;;5087150;28;20164;-65
2021/10/22 01:59:29;;;;;;;18.23;3.97;;;6.90;99.90;;;;;;5085724;28;20174;-64
2021/10/22 02:01:55;;;;;;;11.43;3.70;;;6.70;99.90;;;;;;5086980;28;20235;-64
2021/10/22 02:04:20;;;;;;;15.67;4.07;;;6.70;99.90;;;;;;5086713;28;20566;-65
2021/10/22 02:06:48;;;;;;;14.80;3.63;;;6.70;99.90;;;;;;5086982;28;20179;-64
2021/10/22 02:09:15;;;;;;;12.27;3.73;;;6.80;99.90;;;;;;5086047;28;20163;-64
2021/10/22 02:11:41;;;;;;;14.13;3.40;;;6.80;99.90;;;;;;5086682;28;20215;-64
2021/10/22 02:14:06;;;;;;;12.93;3.37;;;6.80;99.90;;;;;;5086722;28;20171;-64
2021/10/22 02:16:33;;;;;;;18.70;3.83;;;6.80;99.90;;;;;;5086698;28;20251;-64
2021/10/22 02:18:58;;;;;;;13.03;4.30;;;6.90;99.90;;;;;;5086926;28;20164;-64
2021/10/22 02:21:24;;;;;;;12.27;3.90;;;6.80;99.90;;;;;;5086774;28;20180;-64
2021/10/22 02:23:50;;;;;;;15.17;3.40;;;6.70;99.90;;;;;;5086574;28;20531;-64
2021/10/22 02:26:16;;;;;;;16.47;4.43;;;6.70;99.90;;;;;;5086359;28;20190;-64
2021/10/22 02:28:42;;;;;;;17.83;3.63;;;6.80;99.90;;;;;;5087089;28;20156;-64
2021/10/22 02:31:07;;;;;;;12.53;3.50;;;6.60;99.90;;;;;;5086493;28;20160;-64
2021/10/22 02:33:33;;;;;;;9.93;3.70;;;6.60;99.90;;;;;;5086531;28;20171;-64
2021/10/22 02:35:59;;;;;;;11.87;3.30;;;6.60;99.90;;;;;;5086216;28;20170;-64
2021/10/22 02:38:24;;;;;;;15.37;3.53;;;6.70;99.90;;;;;;5086577;28;20164;-64
2021/10/22 02:40:50;;;;;;;12.87;4.53;;;6.70;99.90;;;;;;5084612;28;20218;-65
2021/10/22 02:43:15;;;;;;;18.23;4.03;;;6.90;99.90;;;;;;5086349;28;20187;-65
2021/10/22 02:45:41;;;;;;;9.70;3.90;;;6.70;99.90;;;;;;5085979;28;20243;-64
2021/10/22 02:48:07;;;;;;;14.00;3.10;;;6.70;99.90;;;;;;5086299;28;20152;-64
2021/10/22 02:50:32;;;;;;;12.50;3.43;;;6.60;99.90;;;;;;5084950;28;20640;-64
2021/10/22 02:53:03;;;;;;;17.20;4.00;;;6.70;99.90;;;;;;5086213;28;20191;-64
2021/10/22 02:55:29;;;;;;;18.10;3.77;;;6.60;99.90;;;;;;5085643;28;20172;-64
2021/10/22 02:57:55;;;;;;;14.27;3.90;;;6.70;99.90;;;;;;5086258;28;20625;-64
2021/10/22 03:00:21;;;;;;;8.83;3.50;;;6.60;99.90;;;;;;5086141;28;20164;-64
2021/10/22 03:02:47;;;;;;;6.37;3.33;;;6.60;99.90;;;;;;5086353;28;20199;-64
2021/10/22 03:05:13;;;;;;;10.17;3.03;;;6.60;99.90;;;;;;5085864;28;20178;-64
2021/10/22 03:07:39;;;;;;;12.50;3.20;;;6.70;99.90;;;;;;5086264;28;20205;-64
2021/10/22 03:10:07;;;;;;;14.53;3.17;;;6.70;99.90;;;;;;5085739;28;20176;-64
2021/10/22 03:12:34;;;;;;;8.33;2.90;;;6.70;99.90;;;;;;5086267;28;20156;-64
2021/10/22 03:14:59;;;;;;;15.00;3.30;;;6.70;99.90;;;;;;5085824;28;20641;-64
2021/10/22 03:17:25;;;;;;;8.53;2.93;;;6.60;99.90;;;;;;5085991;28;20178;-64
2021/10/22 03:19:50;;;;;;;12.47;3.10;;;6.60;99.90;;;;;;5088039;28;20175;-64
2021/10/22 03:22:16;;;;;;;13.10;3.20;;;6.50;99.90;;;;;;5090120;28;20195;-64
2021/10/22 03:24:42;;;;;;;14.50;3.83;;;6.40;99.90;;;;;;5089725;28;20179;-65
2021/10/22 03:27:12;;;;;;;8.47;2.97;;;6.40;99.90;;;;;;5090247;28;20195;-64
2021/10/22 03:29:38;;;;;;;16.30;3.47;;;6.40;99.90;;;;;;5090091;28;20163;-64
2021/10/22 03:32:04;;;;;;;12.60;2.77;;;6.40;99.90;;;;;;5090056;28;20200;-64
2021/10/22 03:34:31;;;;;;;9.87;2.50;;;6.50;99.90;;;;;;5089729;28;20179;-64
2021/10/22 03:36:56;;;;;;;10.90;3.40;;;6.50;99.90;;;;;;5089843;28;20171;-64
2021/10/22 03:39:22;;;;;;;11.93;3.10;;;6.60;99.90;;;;;;5089510;28;20168;-64
2021/10/22 03:41:48;;;;;;;13.87;3.20;;;6.60;99.90;;;;;;5089796;28;20551;-64
2021/10/22 03:44:14;;;;;;;14.40;3.77;;;6.70;99.90;;;;;;5089661;28;20171;-64
2021/10/22 03:46:40;;;;;;;9.37;3.20;;;6.70;99.90;;;;;;5089493;28;20633;-65
2021/10/22 03:49:06;;;;;;;10.57;3.03;;;6.60;99.90;;;;;;5089766;28;20160;-64
2021/10/22 03:51:32;;;;;;;7.57;2.63;;;6.60;99.90;;;;;;5088353;28;20210;-64
2021/10/22 03:53:58;;;;;;;14.27;4.13;;;6.60;99.90;;;;;;5089663;28;20163;-64
2021/10/22 03:56:24;;;;;;;17.50;3.57;;;6.60;99.90;;;;;;5089150;28;20191;-65
2021/10/22 03:58:49;;;;;;;7.97;2.43;;;6.70;99.90;;;;;;5089644;28;20160;-64
2021/10/22 04:01:15;;;;;;;9.03;2.70;;;6.60;99.90;;;;;;5089369;28;20513;-64
2021/10/22 04:03:41;;;;;;;9.30;2.57;;;6.50;99.90;;;;;;5089239;28;20225;-64
2021/10/22 04:06:07;;;;;;;9.73;2.80;;;6.50;99.90;;;;;;5088838;28;20168;-65
2021/10/22 04:08:33;;;;;;;17.97;3.67;;;6.50;99.90;;;;;;5089368;28;20167;-64
2021/10/22 04:10:58;;;;;;;12.63;3.30;;;6.50;99.90;;;;;;5088499;28;20216;-64
2021/10/22 04:13:24;;;;;;;15.40;2.83;;;6.50;99.90;;;;;;5089158;28;20245;-64
2021/10/22 04:15:50;;;;;;;7.63;2.40;;;6.50;99.90;;;;;;5088896;28;20175;-64
2021/10/22 04:18:16;;;;;;;12.60;2.70;;;6.50;99.90;;;;;;5089158;28;20160;-64
2021/10/22 04:20:42;;;;;;;11.70;2.90;;;6.50;99.90;;;;;;5089252;28;20160;-64
2021/10/22 04:23:09;;;;;;;10.53;2.90;;;6.60;99.90;;;;;;5088875;28;20180;-64
2021/10/22 04:25:35;;;;;;;14.80;2.83;;;6.50;99.90;;;;;;5088434;28;20180;-64
2021/10/22 04:28:02;;;;;;;11.70;2.70;;;6.60;99.90;;;;;;5088914;28;20170;-64
2021/10/22 04:30:28;;;;;;;14.80;3.13;;;6.50;99.90;;;;;;5088209;28;20160;-64
2021/10/22 04:32:54;;;;;;;15.10;3.60;;;6.50;99.90;;;;;;5088504;28;20186;-64
2021/10/22 04:35:20;;;;;;;13.60;3.87;;;6.50;99.90;;;;;;5088344;28;20172;-64
2021/10/22 04:40:30;;;;;;;7.07;2.30;;;6.50;99.90;;;;;;5088493;28;20229;-64
2021/10/22 04:43:01;;;;;;;15.07;3.30;;;6.50;99.90;;;;;;5088776;28;20180;-65
2021/10/22 04:45:27;;;;;;;9.77;3.20;;;6.40;99.90;;;;;;5088305;28;20168;-64
2021/10/22 04:47:53;;;;;;;10.07;3.17;;;6.40;99.90;;;;;;5088770;28;20167;-64
2021/10/22 04:50:18;;;;;;;10.37;2.83;;;6.40;99.90;;;;;;5088394;28;20164;-64
2021/10/22 04:52:45;;;;;;;9.33;3.53;;;6.30;99.90;;;;;;5088338;28;20164;-64
2021/10/22 04:55:11;;;;;;;11.43;3.10;;;6.40;99.90;;;;;;5087974;28;20176;-64
2021/10/22 04:57:37;;;;;;;10.80;2.73;;;6.30;99.90;;;;;;5088357;28;20160;-64
2021/10/22 05:00:05;;;;;;;9.88;3.13;;;6.30;99.90;;;;;;5087070;28;20508;-64
2021/10/22 05:02:30;;;;;;;14.40;2.50;;;6.50;99.90;;;;;;5088261;28;20184;-64
2021/10/22 05:04:57;;;;;;;8.53;2.77;;;6.50;99.90;;;;;;5088052;28;20255;-64
2021/10/22 05:07:22;;;;;;;12.60;2.90;;;6.50;99.90;;;;;;5088283;28;20556;-64
2021/10/22 05:09:48;;;;;;;8.80;3.13;;;6.50;99.90;;;;;;5086637;28;20409;-64
2021/10/22 05:12:13;;;;;;;7.03;2.87;;;6.40;99.90;;;;;;5087754;28;20342;-64
2021/10/22 05:14:40;;;;;;;6.70;2.70;;;6.50;99.90;;;;;;5087677;28;20182;-64
2021/10/22 05:17:06;;;;;;;10.27;3.37;;;6.50;99.90;;;;;;5087777;28;20162;-64
2021/10/22 05:19:31;;;;;;;16.57;3.47;;;6.40;99.90;;;;;;5087993;28;20171;-64
2021/10/22 05:21:57;;;;;;;9.33;3.50;;;6.40;99.90;;;;;;5086452;28;20172;-64
2021/10/22 05:24:23;;;;;;;7.37;2.90;;;6.40;99.90;;;;;;5087462;28;20182;-64
2021/10/22 05:26:50;;;;;;;17.13;3.10;;;6.30;99.90;;;;;;5087564;28;20160;-64
2021/10/22 05:29:17;;;;;;;4.97;2.60;;;6.40;99.90;;;;;;5087741;28;20247;-64
2021/10/22 05:31:43;;;;;;;7.20;3.10;;;6.30;99.90;;;;;;5085909;28;20166;-64
2021/10/22 05:34:08;;;;;;;20.93;3.00;;;6.30;99.90;;;;;;5085817;28;20304;-63
2021/10/22 05:36:34;;;;;;;11.27;3.43;;;6.30;99.90;;;;;;5087506;28;20194;-63
2021/10/22 05:39:00;;;;;;;10.30;4.00;;;6.40;99.90;;;;;;5087587;28;20621;-63
2021/10/22 05:41:25;;;;;;;10.73;4.27;;;6.50;99.90;;;;;;5087148;28;20184;-63
2021/10/22 05:43:51;;;;;;;13.17;4.10;;;6.40;99.90;;;;;;5087211;28;20215;-63
2021/10/22 05:46:20;;;;;;;17.10;8.17;;;6.40;99.90;;;;;;5086984;28;20218;-63
2021/10/22 05:48:46;;;;;;;19.60;9.67;;;6.40;99.90;;;;;;5087455;28;20621;-63
2021/10/22 05:51:13;;;;;;;9.87;3.90;;;6.50;99.90;;;;;;5085818;28;20246;-63
2021/10/22 05:53:39;;;;;;;16.23;4.23;;;6.50;99.90;;;;;;5086049;28;20174;-63
2021/10/22 05:56:07;;;;;;;12.80;4.00;;;6.40;99.90;;;;;;5086377;28;20179;-63
2021/10/22 05:58:33;;;;;;;21.50;4.57;;;6.40;99.90;;;;;;5087036;28;20164;-63
2021/10/22 06:00:59;;;;;;;13.20;4.30;;;6.50;99.90;;;;;;5087059;28;20156;-63
2021/10/22 06:03:24;;;;;;;13.17;4.17;;;6.40;99.90;;;;;;5087039;28;20188;-63
2021/10/22 06:05:53;;;;;;;12.13;3.77;;;6.30;99.90;;;;;;5086762;28;20289;-63
2021/10/22 06:08:20;;;;;;;13.63;6.07;;;6.40;99.90;;;;;;5086786;28;20179;-63
2021/10/22 06:10:47;;;;;;;12.43;4.63;;;6.20;99.90;;;;;;5086509;28;20272;-63
2021/10/22 06:13:16;;;;;;;17.00;6.97;;;6.40;99.90;;;;;;5086918;28;20206;-63
2021/10/22 06:15:42;;;;;;;13.53;3.87;;;6.40;99.90;;;;;;5086828;28;20179;-63
2021/10/22 06:18:08;;;;;;;15.40;4.80;;;6.40;99.90;;;;;;5086905;28;20164;-63
2021/10/22 06:25:42;;;;;;;24.53;4.67;;;6.30;99.90;;;;;;5086094;28;20179;-63
2021/10/22 06:28:10;;;;;;;15.23;4.17;;;6.40;99.90;;;;;;5085459;28;20171;-63
2021/10/22 06:30:36;;;;;;;15.43;4.60;;;6.50;99.90;;;;;;5086672;28;20167;-63
2021/10/22 06:33:02;;;;;;;12.90;4.33;;;6.50;99.90;;;;;;5086708;28;20168;-63
2021/10/22 06:35:28;;;;;;;14.27;4.13;;;6.50;99.90;;;;;;5086078;28;20186;-63
2021/10/22 06:37:55;;;;;;;10.03;3.97;;;6.40;99.90;;;;;;5086469;28;20195;-63
2021/10/22 06:40:21;;;;;;;20.83;4.47;;;6.50;99.90;;;;;;5085780;28;20238;-63
2021/10/22 06:42:48;;;;;;;18.27;4.20;;;6.40;99.90;;;;;;5086377;28;20188;-63
2021/10/22 06:45:13;;;;;;;13.10;4.73;;;6.50;99.90;;;;;;5086326;28;20699;-63
2021/10/22 06:47:39;;;;;;;9.67;4.43;;;6.50;99.90;;;;;;5086569;28;20180;-63
2021/10/22 06:50:06;;;;;;;15.60;4.80;;;6.50;99.90;;;;;;5086531;28;20217;-64
2021/10/22 06:52:32;;;;;;;17.70;4.67;;;6.50;99.90;;;;;;5086404;28;20172;-63
2021/10/22 06:54:58;;;;;;;10.27;3.73;;;6.50;99.90;;;;;;5085391;28;20237;-63
2021/10/22 06:57:24;;;;;;;12.40;4.40;;;6.60;99.90;;;;;;5086232;28;20175;-65
2021/10/22 06:59:50;;;;;;;15.60;4.37;;;6.60;99.90;;;;;;5086211;28;20168;-66
2021/10/22 07:02:15;;;;;;;13.63;4.03;;;6.70;99.90;;;;;;5086533;28;20258;-63
2021/10/22 07:04:48;;;;;;;8.27;3.73;;;6.80;99.90;;;;;;5085934;28;20223;-63
2021/10/22 07:07:15;;;;;;;12.97;3.67;;;6.70;99.90;;;;;;5086028;28;20175;-63
2021/10/22 07:09:46;;;;;;;9.70;3.60;;;6.70;99.90;;;;;;5085653;28;20585;-64
2021/10/22 07:12:12;;;;;;;15.67;3.50;;;6.70;99.90;;;;;;5084596;28;20215;-63
2021/10/22 07:14:47;;;;;;;14.13;3.40;;;6.70;99.90;;;;;;5085891;28;20179;-63
2021/10/22 07:17:13;;;;;;;10.17;4.33;;;6.80;99.90;;;;;;5086060;28;20177;-63
2021/10/22 07:19:39;;;;;;;7.03;3.07;;;7.00;99.90;;;;;;5086096;28;20239;-63
2021/10/22 07:22:13;;;;;;;13.00;3.20;;;7.10;99.90;;;;;;5085941;28;20214;-63
2021/10/22 07:24:39;;;;;;;10.37;4.23;;;7.10;99.90;;;;;;5085723;28;20168;-63
2021/10/22 07:27:05;;;;;;;10.40;3.97;;;7.20;99.90;;;;;;5085814;28;20180;-64
2021/10/22 07:29:31;;;;;;;7.07;3.10;;;7.30;99.90;;;;;;5086041;28;20164;-63
2021/10/22 07:31:58;;;;;;;7.80;3.57;;;7.40;99.90;;;;;;5084708;28;20613;-63
2021/10/22 07:34:24;;;;;;;6.93;3.23;;;7.40;99.90;;;;;;5085440;28;20160;-63
2021/10/22 07:36:51;;;;;;;12.27;3.23;;;7.50;99.90;;;;;;5085840;28;20194;-64
2021/10/22 07:39:22;;;;;;;13.53;3.70;;;7.60;99.90;;;;;;5084244;28;20179;-63
2021/10/22 07:41:47;;;;;;;10.47;3.83;;;7.60;99.90;;;;;;5085923;28;20149;-63
2021/10/22 07:44:13;;;;;;;12.20;3.17;;;7.70;99.90;;;;;;5085776;28;20179;-63
2021/10/22 07:46:42;;;;;;;9.57;3.10;;;7.60;99.90;;;;;;5085827;28;20195;-64
2021/10/22 07:49:08;;;;;;;13.27;3.33;;;7.70;99.90;;;;;;5085955;28;20641;-64
2021/10/22 07:51:34;;;;;;;16.83;3.43;;;7.70;99.90;;;;;;5084535;28;20258;-64
2021/10/22 07:54:00;;;;;;;5.53;3.03;;;7.80;99.90;;;;;;5085872;28;20665;-64
2021/10/22 07:56:25;;;;;;;4.80;2.90;;;8.00;99.90;;;;;;5085173;28;20225;-64
2021/10/22 07:58:51;;;;;;;14.20;3.40;;;8.10;99.90;;;;;;5085655;28;20561;-64
2021/10/22 08:01:19;;;;;;;9.63;3.30;;;8.20;99.90;;;;;;5085875;28;20227;-64
2021/10/22 08:03:46;;;;;;;13.40;3.67;;;8.30;99.90;;;;;;5085484;28;20188;-64
2021/10/22 08:06:13;;;;;;;9.73;3.20;;;8.40;99.90;;;;;;5086161;28;20193;-64
2021/10/22 08:08:41;;;;;;;8.40;2.50;;;8.60;99.90;;;;;;5089370;28;20171;-64
2021/10/22 08:11:07;;;;;;;10.77;2.90;;;8.80;99.90;;;;;;5088706;28;20211;-64
2021/10/22 08:13:32;;;;;;;13.53;4.07;;;8.80;99.90;;;;;;5089641;28;20168;-64
2021/10/22 08:15:58;;;;;;;13.60;3.60;;;8.90;99.90;;;;;;5088993;28;20200;-64
2021/10/22 08:18:24;;;;;;;7.73;2.70;;;8.80;99.90;;;;;;5089357;28;20239;-64
2021/10/22 08:20:57;;;;;;;15.90;2.80;;;8.80;99.90;;;;;;5089097;28;20168;-64
2021/10/22 08:23:23;;;;;;;19.33;3.47;;;8.80;99.90;;;;;;5089204;28;20176;-64
2021/10/22 08:25:49;;;;;;;11.07;3.37;;;8.90;99.90;;;;;;5088647;28;20653;-65
2021/10/22 08:28:17;;;;;;;8.33;2.63;;;8.80;99.90;;;;;;5087954;28;20242;-65
2021/10/22 08:30:43;;;;;;;7.63;2.87;;;8.90;99.90;;;;;;5088953;28;20168;-64
2021/10/22 08:33:11;;;;;;;12.33;3.07;;;9.00;99.90;;;;;;5089025;28;20202;-64
2021/10/22 08:35:37;;;;;;;8.50;2.53;;;9.10;99.90;;;;;;5088736;28;20168;-64
2021/10/22 08:38:06;;;;;;;10.90;3.10;;;9.20;99.90;;;;;;5088940;28;20264;-64
2021/10/22 08:40:31;;;;;;;12.30;3.10;;;9.20;99.90;;;;;;5088373;28;20176;-64
2021/10/22 08:42:58;;;;;;;6.73;2.87;;;9.20;99.90;;;;;;5087398;28;20215;-64
2021/10/22 08:45:23;;;;;;;10.67;2.90;;;9.30;99.90;;;;;;5087389;28;20187;-65
2021/10/22 08:47:52;;;;;;;11.97;3.80;;;9.40;99.90;;;;;;5088731;28;20576;-64
2021/10/22 08:50:20;;;;;;;7.70;2.60;;;9.40;99.90;;;;;;5087367;28;20164;-64
2021/10/22 08:52:47;;;;;;;9.40;2.47;;;9.50;99.90;;;;;;5088499;28;20164;-64
2021/10/22 08:55:15;;;;;;;10.13;2.83;;;9.80;99.90;;;;;;5088324;28;20187;-64
2021/10/22 08:57:42;;;;;;;13.43;3.63;;;9.90;99.90;;;;;;5088636;28;20168;-64
2021/10/22 09:00:11;;;;;;;13.43;2.33;;;10.00;99.90;;;;;;5088670;28;20188;-64
2021/10/22 09:02:37;;;;;;;8.17;2.33;;;10.10;99.90;;;;;;5088185;28;20192;-64
2021/10/22 09:05:23;;;;;;;9.53;2.43;;;10.10;99.90;;;;;;5086903;28;20180;-64
2021/10/22 09:07:58;;;;;;;8.00;2.87;;;10.20;99.90;;;;;;5087066;28;20164;-64
2021/10/22 09:10:26;;;;;;;12.47;2.53;;;10.40;99.90;;;;;;5087330;28;20207;-65
2021/10/22 09:12:56;;;;;;;19.53;2.60;;;10.40;99.90;;;;;;5087917;28;20168;-65
2021/10/22 09:15:27;;;;;;;10.03;2.70;;;10.40;99.90;;;;;;5088014;28;20231;-64
2021/10/22 09:17:55;;;;;;;10.43;2.37;;;10.40;99.90;;;;;;5087737;28;20176;-64
2021/10/22 09:20:24;;;;;;;13.63;1.90;;;10.50;99.90;;;;;;5088152;28;20172;-64
2021/10/22 09:22:54;;;;;;;8.43;2.60;;;10.60;99.90;;;;;;5088027;28;20184;-64
2021/10/22 09:25:23;;;;;;;12.23;2.50;;;10.60;99.90;;;;;;5087660;28;20191;-64
2021/10/22 09:27:53;;;;;;;10.10;3.07;;;10.70;99.90;;;;;;5088045;28;20187;-64
2021/10/22 09:30:38;;;;;;;11.00;2.63;;;10.80;99.90;;;;;;5087865;28;20174;-64
2021/10/22 09:33:15;;;;;;;6.90;2.20;;;10.90;99.90;;;;;;5087782;28;20679;-64
2021/10/22 09:35:50;;;;;;;12.63;2.10;;;10.90;99.90;;;;;;5087564;28;20195;-64
2021/10/22 09:38:21;;;;;;;11.03;1.80;;;10.90;99.90;;;;;;5087872;28;20179;-64
2021/10/22 09:40:59;;;;;;;6.28;2.13;;;11.00;99.90;;;;;;5087027;28;20172;-64
2021/10/22 09:43:30;;;;;;;15.15;2.13;;;11.00;99.90;;;;;;5087476;28;20183;-64
2021/10/22 09:46:17;;;;;;;7.85;1.92;;;11.20;99.90;;;;;;5086162;28;20172;-64
2021/10/22 09:48:58;;;;;;;9.10;2.30;;;11.40;99.90;;;;;;5086384;28;20602;-64
2021/10/22 09:51:33;;;;;;;5.38;1.52;;;11.30;99.90;;;;;;5086089;28;20187;-64
2021/10/22 09:54:10;;;;;;;7.63;2.22;;;11.30;99.90;;;;;;5087497;28;20151;-64
2021/10/22 09:56:37;;;;;;;5.17;2.00;;;11.50;99.90;;;;;;5086889;28;20172;-64
2021/10/22 09:59:08;;;;;;;9.88;2.25;;;11.50;99.90;;;;;;5087262;28;20214;-64
2021/10/22 10:01:42;;;;;;;9.52;1.80;;;11.50;99.90;;;;;;5087208;28;20193;-63
2021/10/22 10:04:09;;;;;;;7.63;1.95;;;11.70;99.90;;;;;;5087151;28;20224;-63
2021/10/22 10:06:39;;;;;;;9.65;1.70;;;11.70;99.90;;;;;;5086887;28;20674;-64
2021/10/22 10:09:09;;;;;;;12.55;1.52;;;11.50;99.90;;;;;;5087077;28;20269;-64
2021/10/22 10:11:39;;;;;;;9.65;1.70;;;11.40;99.90;;;;;;5086647;28;20233;-63
2021/10/22 10:14:05;;;;;;;6.03;1.65;;;11.50;99.90;;;;;;5087056;28;20152;-63
2021/10/22 10:16:34;;;;;;;9.73;1.98;;;11.70;99.90;;;;;;5086684;28;20235;-64
2021/10/22 10:19:06;;;;;;;5.72;1.60;;;11.90;99.90;;;;;;5086892;28;20199;-63
2021/10/22 10:21:54;;;;;;;6.97;1.73;;;12.10;99.90;;;;;;5086744;28;20168;-64
2021/10/22 10:24:30;;;;;;;10.43;1.80;;;12.00;99.90;;;;;;5086686;28;20179;-64
2021/10/22 10:27:08;;;;;;;10.32;2.42;;;12.00;99.90;;;;;;5086760;28;20239;-64
2021/10/22 10:29:42;;;;;;;5.53;1.92;;;11.90;99.90;;;;;;5086167;28;20152;-65
2021/10/22 10:32:11;;;;;;;10.00;2.03;;;12.00;99.90;;;;;;5086928;28;20170;-64
2021/10/22 10:34:38;;;;;;;15.88;1.70;;;12.00;99.90;;;;;;5085443;28;20186;-64
2021/10/22 10:37:17;;;;;;;14.95;2.00;;;12.00;99.90;;;;;;5086620;28;20209;-65
2021/10/22 10:39:46;;;;;;;15.40;2.10;;;12.00;99.90;;;;;;5084836;28;20824;-64
2021/10/22 10:42:34;;;;;;;4.50;1.75;;;12.10;99.90;;;;;;5086251;28;20190;-65
2021/10/22 10:45:14;;;;;;;6.57;2.00;;;12.20;99.90;;;;;;5085116;28;20263;-64
2021/10/22 10:47:54;;;;;;;6.47;1.63;;;12.20;99.90;;;;;;5086409;28;20159;-65
2021/10/22 10:50:57;;;;;;;9.73;2.45;;;12.50;99.90;;;;;;5086467;28;20162;-65
2021/10/22 10:53:35;;;;;;;6.35;1.75;;;12.60;99.90;;;;;;5073583;28;20248;-64
2021/10/22 10:56:04;;;;;;;7.00;1.80;;;12.30;99.90;;;;;;5085921;28;20184;-64
2021/10/22 10:58:39;;;;;;;5.47;1.88;;;12.00;99.90;;;;;;5086257;28;20224;-64
2021/10/22 11:01:20;;;;;;;6.93;1.77;;;11.90;99.90;;;;;;5086447;28;20229;-64
2021/10/22 11:03:47;;;;;;;8.68;1.90;;;12.10;99.90;;;;;;5086340;28;20175;-65
2021/10/22 11:06:32;;;;;;;6.55;2.17;;;12.10;99.90;;;;;;5085955;28;20688;-64
2021/10/22 11:08:57;;;;;;;9.20;2.45;;;12.30;99.90;;;;;;5086524;28;20155;-64
2021/10/22 11:11:28;;;;;;;6.40;2.03;;;12.50;99.90;;;;;;5085766;28;20207;-64
2021/10/22 11:14:11;;;;;;;14.23;2.35;;;12.60;99.90;;;;;;5085975;28;20574;-64
2021/10/22 11:16:44;;;;;;;12.20;2.00;;;12.60;99.90;;;;;;5085961;28;20172;-64
2021/10/22 11:19:18;;;;;;;6.95;1.67;;;12.70;99.90;;;;;;5084892;28;20168;-64
2021/10/22 11:22:08;;;;;;;3.97;1.40;;;13.00;99.90;;;;;;5086076;28;20304;-64
2021/10/22 11:24:36;;;;;;;8.63;2.03;;;13.10;99.90;;;;;;5085813;28;20301;-63
2021/10/22 11:27:05;;;;;;;8.15;1.70;;;13.10;99.90;;;;;;5085816;28;20561;-64
2021/10/22 11:29:45;;;;;;;10.20;1.50;;;12.90;99.90;;;;;;5086181;28;20194;-64
2021/10/22 11:32:15;;;;;;;5.50;1.52;;;12.90;99.90;;;;;;5085867;28;20168;-65
2021/10/22 11:34:52;;;;;;;4.38;1.55;;;12.80;99.90;;;;;;5085799;28;20187;-64
2021/10/22 11:37:20;;;;;;;11.55;2.20;;;12.60;99.90;;;;;;5085952;28;20166;-64
2021/10/22 11:39:51;;;;;;;5.38;1.60;;;12.70;99.90;;;;;;5085605;28;20164;-64
2021/10/22 11:42:28;;;;;;;6.88;1.92;;;12.60;99.90;;;;;;5089887;28;20233;-64
2021/10/22 11:45:08;;;;;;;7.05;1.95;;;12.50;99.90;;;;;;5090028;28;20164;-64
2021/10/22 11:47:36;;;;;;;3.63;1.33;;;12.50;99.90;;;;;;5089897;28;20168;-64
2021/10/22 11:50:11;;;;;;;9.25;1.60;;;12.70;99.90;;;;;;5089992;28;20195;-64
2021/10/22 11:52:37;;;;;;;14.35;1.73;;;12.80;99.90;;;;;;5089729;28;20202;-64
2021/10/22 11:55:04;;;;;;;4.55;1.55;;;12.60;99.90;;;;;;5089209;28;20168;-64
2021/10/22 11:57:33;;;;;;;6.80;1.63;;;12.40;99.90;;;;;;5089589;28;20156;-64
2021/10/22 11:59:59;;;;;;;8.10;1.48;;;12.40;99.90;;;;;;5089403;28;20426;-64
2021/10/22 12:02:32;;;;;;;5.68;1.38;;;12.40;99.90;;;;;;5089379;28;20188;-64
2021/10/22 12:05:03;;;;;;;8.20;1.73;;;12.40;99.90;;;;;;5089299;28;20156;-64
2021/10/22 12:07:34;;;;;;;3.83;1.45;;;12.40;99.90;;;;;;5089385;28;20160;-64
2021/10/22 12:10:00;;;;;;;6.05;0.93;;;12.60;99.90;;;;;;5089006;28;20236;-64
2021/10/22 12:12:40;;;;;;;6.40;1.42;;;12.70;99.90;;;;;;5089346;28;20175;-64
2021/10/22 12:15:07;;;;;;;15.35;1.80;;;12.70;99.90;;;;;;5089215;28;20201;-64
2021/10/22 12:17:34;;;;;;;6.28;1.58;;;12.70;99.90;;;;;;5089096;28;20168;-64
2021/10/22 12:20:04;;;;;;;5.72;1.55;;;12.70;99.90;;;;;;5089344;28;20603;-64
2021/10/22 12:22:35;;;;;;;7.35;1.35;;;12.90;99.90;;;;;;5087789;28;20207;-64
2021/10/22 12:25:18;;;;;;;5.60;1.25;;;12.90;99.90;;;;;;5088881;28;20187;-64
2021/10/22 12:27:50;;;;;;;6.88;1.40;;;12.90;99.90;;;;;;5089037;28;20156;-64
2021/10/22 12:30:19;;;;;;;11.45;1.63;;;12.90;99.90;;;;;;5089241;28;20167;-64
2021/10/22 12:33:04;;;;;;;9.68;1.67;;;12.80;99.90;;;;;;5088996;28;20164;-64
2021/10/22 12:35:52;;;;;;;8.88;1.75;;;12.70;99.90;;;;;;5088734;28;20172;-64
2021/10/22 12:38:27;;;;;;;2.78;1.15;;;12.80;99.90;;;;;;5088973;28;20187;-64
2021/10/22 12:40:54;;;;;;;5.70;1.27;;;12.70;99.90;;;;;;5088383;28;20171;-64
2021/10/22 12:43:32;;;;;;;3.67;1.10;;;12.60;99.90;;;;;;5088919;28;20191;-64
2021/10/22 12:46:03;;;;;;;9.85;1.60;;;12.60;99.90;;;;;;5088379;28;20236;-64
2021/10/22 12:48:53;;;;;;;5.43;1.70;;;12.70;99.90;;;;;;5088760;28;20160;-64
2021/10/22 12:51:25;;;;;;;4.72;1.45;;;12.70;99.90;;;;;;5088331;28;20156;-64
2021/10/22 12:53:58;;;;;;;6.50;1.48;;;12.70;99.90;;;;;;5088282;28;20172;-64
2021/10/22 12:56:26;;;;;;;6.15;1.60;;;12.80;99.90;;;;;;5088049;28;20178;-64
2021/10/22 12:58:59;;;;;;;6.28;1.60;;;12.80;99.90;;;;;;5087213;28;20164;-64
2021/10/22 13:01:32;;;;;;;12.20;1.83;;;12.70;99.90;;;;;;5088412;28;20189;-64
2021/10/22 13:04:01;;;;;;;4.90;1.70;;;12.70;99.90;;;;;;5088329;28;20183;-64